sensor_id;sensor_type;location;lat;lon;timestamp;pressure;altitude;pressure_sealevel;temperature;humidity
75039;BME280;63609;49.992;14.512;2024-02-23T00:01:52;95745.00;;;8.43;65.69
75039;BME280;63609;49.992;14.512;2024-02-23T00:04:19;95740.19;;;8.53;65.18
75039;BME280;63609;49.992;14.512;2024-02-23T00:06:46;95742.09;;;8.66;64.73
75039;BME280;63609;49.992;14.512;2024-02-23T00:09:13;95739.69;;;8.71;64.50
75039;BME280;63609;49.992;14.512;2024-02-23T00:11:40;95728.28;;;8.49;64.94
75039;BME280;63609;49.992;14.512;2024-02-23T00:14:11;95730.22;;;8.62;64.93
75039;BME280;63609;49.992;14.512;2024-02-23T00:16:39;95723.75;;;8.43;65.15
75039;BME280;63609;49.992;14.512;2024-02-23T00:19:09;95717.44;;;8.50;65.39
75039;BME280;63609;49.992;14.512;2024-02-23T00:21:37;95725.25;;;8.52;64.69
75039;BME280;63609;49.992;14.512;2024-02-23T00:24:06;95705.63;;;8.53;64.83
75039;BME280;63609;49.992;14.512;2024-02-23T00:26:32;95728.44;;;8.69;63.85
75039;BME280;63609;49.992;14.512;2024-02-23T00:28:59;95725.97;;;8.67;64.19
75039;BME280;63609;49.992;14.512;2024-02-23T00:31:26;95739.00;;;8.90;63.89
75039;BME280;63609;49.992;14.512;2024-02-23T00:33:53;95736.66;;;8.80;63.59
75039;BME280;63609;49.992;14.512;2024-02-23T00:36:19;95731.28;;;8.67;63.97
75039;BME280;63609;49.992;14.512;2024-02-23T00:38:46;95728.66;;;8.74;63.75
75039;BME280;63609;49.992;14.512;2024-02-23T00:41:13;95717.50;;;8.57;64.36
75039;BME280;63609;49.992;14.512;2024-02-23T00:43:41;95730.28;;;8.68;64.33
75039;BME280;63609;49.992;14.512;2024-02-23T00:46:08;95740.41;;;8.58;64.83
75039;BME280;63609;49.992;14.512;2024-02-23T00:48:36;95751.88;;;8.86;63.58
75039;BME280;63609;49.992;14.512;2024-02-23T00:51:03;95751.66;;;8.88;63.03
75039;BME280;63609;49.992;14.512;2024-02-23T00:53:31;95755.03;;;9.10;62.94
75039;BME280;63609;49.992;14.512;2024-02-23T00:55:58;95763.63;;;9.12;62.63
75039;BME280;63609;49.992;14.512;2024-02-23T00:58:25;95771.00;;;9.10;62.24
75039;BME280;63609;49.992;14.512;2024-02-23T01:03:31;95761.47;;;8.53;64.28
75039;BME280;63609;49.992;14.512;2024-02-23T01:05:57;95771.22;;;8.74;64.49
75039;BME280;63609;49.992;14.512;2024-02-23T01:08:24;95780.91;;;8.53;64.46
75039;BME280;63609;49.992;14.512;2024-02-23T01:10:51;95777.47;;;8.94;63.37
75039;BME280;63609;49.992;14.512;2024-02-23T01:13:18;95787.69;;;8.91;63.33
75039;BME280;63609;49.992;14.512;2024-02-23T01:15:45;95792.50;;;8.74;64.25
75039;BME280;63609;49.992;14.512;2024-02-23T01:18:12;95791.72;;;8.80;64.16
75039;BME280;63609;49.992;14.512;2024-02-23T01:20:39;95797.63;;;8.75;64.03
75039;BME280;63609;49.992;14.512;2024-02-23T01:23:06;95789.81;;;8.67;63.85
75039;BME280;63609;49.992;14.512;2024-02-23T01:25:33;95800.03;;;8.42;65.07
75039;BME280;63609;49.992;14.512;2024-02-23T01:28:02;95805.09;;;8.93;63.06
75039;BME280;63609;49.992;14.512;2024-02-23T01:30:30;95807.25;;;8.76;64.28
75039;BME280;63609;49.992;14.512;2024-02-23T01:32:56;95811.25;;;8.66;64.34
75039;BME280;63609;49.992;14.512;2024-02-23T01:35:24;95817.84;;;9.04;63.40
75039;BME280;63609;49.992;14.512;2024-02-23T01:37:51;95827.03;;;8.67;64.34
75039;BME280;63609;49.992;14.512;2024-02-23T01:40:18;95838.38;;;8.54;65.23
75039;BME280;63609;49.992;14.512;2024-02-23T01:42:46;95843.44;;;8.49;65.29
75039;BME280;63609;49.992;14.512;2024-02-23T01:45:12;95836.19;;;8.15;66.04
75039;BME280;63609;49.992;14.512;2024-02-23T01:47:39;95842.38;;;8.44;65.31
75039;BME280;63609;49.992;14.512;2024-02-23T01:50:07;95855.53;;;8.24;65.69
75039;BME280;63609;49.992;14.512;2024-02-23T01:52:35;95858.03;;;8.11;65.82
75039;BME280;63609;49.992;14.512;2024-02-23T01:55:02;95856.00;;;8.34;65.09
75039;BME280;63609;49.992;14.512;2024-02-23T01:57:29;95854.69;;;8.02;63.73
75039;BME280;63609;49.992;14.512;2024-02-23T02:00:16;95855.72;;;8.50;63.38
75039;BME280;63609;49.992;14.512;2024-02-23T02:02:50;95862.38;;;8.40;63.35
75039;BME280;63609;49.992;14.512;2024-02-23T02:05:18;95870.44;;;8.25;63.70
75039;BME280;63609;49.992;14.512;2024-02-23T02:07:47;95863.69;;;8.22;62.89
75039;BME280;63609;49.992;14.512;2024-02-23T02:10:17;95866.25;;;8.58;62.47
75039;BME280;63609;49.992;14.512;2024-02-23T02:12:44;95863.34;;;8.32;62.91
75039;BME280;63609;49.992;14.512;2024-02-23T02:15:11;95867.78;;;8.25;63.11
75039;BME280;63609;49.992;14.512;2024-02-23T02:17:38;95872.34;;;8.31;63.28
75039;BME280;63609;49.992;14.512;2024-02-23T02:20:07;95869.75;;;8.38;63.06
75039;BME280;63609;49.992;14.512;2024-02-23T02:22:37;95869.84;;;8.72;62.41
75039;BME280;63609;49.992;14.512;2024-02-23T02:25:05;95888.06;;;8.75;61.86
75039;BME280;63609;49.992;14.512;2024-02-23T02:27:32;95880.19;;;8.39;62.39
75039;BME280;63609;49.992;14.512;2024-02-23T02:29:59;95894.81;;;8.28;63.18
75039;BME280;63609;49.992;14.512;2024-02-23T02:32:26;95886.22;;;8.26;64.07
75039;BME280;63609;49.992;14.512;2024-02-23T02:34:53;95885.75;;;8.44;63.67
75039;BME280;63609;49.992;14.512;2024-02-23T02:37:20;95880.75;;;8.35;64.21
75039;BME280;63609;49.992;14.512;2024-02-23T02:39:47;95897.84;;;8.04;64.82
75039;BME280;63609;49.992;14.512;2024-02-23T02:42:14;95894.25;;;7.76;65.56
75039;BME280;63609;49.992;14.512;2024-02-23T02:44:41;95904.47;;;7.93;64.76
75039;BME280;63609;49.992;14.512;2024-02-23T02:47:08;95912.50;;;8.00;64.43
75039;BME280;63609;49.992;14.512;2024-02-23T02:49:36;95908.41;;;7.83;63.53
75039;BME280;63609;49.992;14.512;2024-02-23T02:52:02;95902.09;;;7.84;62.61
75039;BME280;63609;49.992;14.512;2024-02-23T02:54:29;95918.13;;;7.90;62.56
75039;BME280;63609;49.992;14.512;2024-02-23T02:56:56;95911.81;;;7.77;62.27
75039;BME280;63609;49.992;14.512;2024-02-23T02:59:23;95922.50;;;7.62;60.85
75039;BME280;63609;49.992;14.512;2024-02-23T03:01:54;95914.66;;;7.75;60.13
75039;BME280;63609;49.992;14.512;2024-02-23T03:04:21;95921.88;;;7.96;59.59
75039;BME280;63609;49.992;14.512;2024-02-23T03:06:48;95923.63;;;7.89;59.29
75039;BME280;63609;49.992;14.512;2024-02-23T03:09:15;95929.16;;;7.73;59.15
75039;BME280;63609;49.992;14.512;2024-02-23T03:11:42;95933.69;;;7.93;59.45
75039;BME280;63609;49.992;14.512;2024-02-23T03:14:09;95925.81;;;7.85;58.16
75039;BME280;63609;49.992;14.512;2024-02-23T03:16:36;95932.47;;;7.60;58.54
75039;BME280;63609;49.992;14.512;2024-02-23T03:19:04;95944.75;;;7.61;58.09
75039;BME280;63609;49.992;14.512;2024-02-23T03:21:31;95947.81;;;7.79;58.25
75039;BME280;63609;49.992;14.512;2024-02-23T03:23:58;95953.72;;;7.60;57.82
75039;BME280;63609;49.992;14.512;2024-02-23T03:26:25;95949.09;;;7.83;57.92
75039;BME280;63609;49.992;14.512;2024-02-23T03:28:52;95961.34;;;7.84;57.49
75039;BME280;63609;49.992;14.512;2024-02-23T03:31:19;95963.78;;;7.35;57.66
75039;BME280;63609;49.992;14.512;2024-02-23T03:33:45;95952.28;;;7.20;57.36
75039;BME280;63609;49.992;14.512;2024-02-23T03:36:12;95977.16;;;7.56;56.90
75039;BME280;63609;49.992;14.512;2024-02-23T03:38:39;95986.97;;;7.56;56.65
75039;BME280;63609;49.992;14.512;2024-02-23T03:41:06;95992.34;;;7.48;56.27
75039;BME280;63609;49.992;14.512;2024-02-23T03:43:33;95996.09;;;7.39;56.10
75039;BME280;63609;49.992;14.512;2024-02-23T03:46:01;95994.25;;;7.39;56.08
75039;BME280;63609;49.992;14.512;2024-02-23T03:48:28;95999.66;;;7.46;56.50
75039;BME280;63609;49.992;14.512;2024-02-23T03:50:55;96012.69;;;7.18;56.24
75039;BME280;63609;49.992;14.512;2024-02-23T03:53:22;96008.97;;;7.27;56.34
75039;BME280;63609;49.992;14.512;2024-02-23T03:55:50;96024.94;;;7.04;56.64
75039;BME280;63609;49.992;14.512;2024-02-23T03:58:16;96020.69;;;6.95;55.43
75039;BME280;63609;49.992;14.512;2024-02-23T04:00:43;96033.44;;;7.14;55.55
75039;BME280;63609;49.992;14.512;2024-02-23T04:03:10;96040.53;;;7.22;56.20
75039;BME280;63609;49.992;14.512;2024-02-23T04:05:37;96030.72;;;6.85;55.95
75039;BME280;63609;49.992;14.512;2024-02-23T04:08:05;96035.44;;;6.97;56.52
75039;BME280;63609;49.992;14.512;2024-02-23T04:10:33;96051.09;;;7.07;56.10
75039;BME280;63609;49.992;14.512;2024-02-23T04:13:00;96061.16;;;7.12;56.58
75039;BME280;63609;49.992;14.512;2024-02-23T04:15:27;96067.97;;;6.91;56.67
75039;BME280;63609;49.992;14.512;2024-02-23T04:17:54;96054.22;;;7.11;56.64
75039;BME280;63609;49.992;14.512;2024-02-23T04:20:23;96061.09;;;7.20;56.09
75039;BME280;63609;49.992;14.512;2024-02-23T04:22:50;96053.47;;;7.02;56.25
75039;BME280;63609;49.992;14.512;2024-02-23T04:25:16;96070.75;;;6.98;56.36
75039;BME280;63609;49.992;14.512;2024-02-23T04:27:43;96064.72;;;6.81;55.64
75039;BME280;63609;49.992;14.512;2024-02-23T04:30:11;96070.91;;;6.73;56.40
75039;BME280;63609;49.992;14.512;2024-02-23T04:32:40;96074.59;;;6.95;55.38
75039;BME280;63609;49.992;14.512;2024-02-23T04:35:07;96075.50;;;6.80;56.46
75039;BME280;63609;49.992;14.512;2024-02-23T04:37:34;96073.16;;;6.85;55.35
75039;BME280;63609;49.992;14.512;2024-02-23T04:40:03;96071.09;;;6.72;54.81
75039;BME280;63609;49.992;14.512;2024-02-23T04:42:32;96092.34;;;6.87;53.39
75039;BME280;63609;49.992;14.512;2024-02-23T04:44:59;96099.66;;;6.85;53.57
75039;BME280;63609;49.992;14.512;2024-02-23T04:47:26;96106.38;;;6.72;53.16
75039;BME280;63609;49.992;14.512;2024-02-23T04:49:53;96112.78;;;6.55;53.28
75039;BME280;63609;49.992;14.512;2024-02-23T04:52:20;96104.25;;;6.37;52.67
75039;BME280;63609;49.992;14.512;2024-02-23T04:54:47;96119.72;;;6.25;53.38
75039;BME280;63609;49.992;14.512;2024-02-23T04:57:14;96120.88;;;6.62;52.99
75039;BME280;63609;49.992;14.512;2024-02-23T04:59:41;96122.69;;;6.30;52.62
75039;BME280;63609;49.992;14.512;2024-02-23T05:02:08;96128.78;;;6.39;52.80
75039;BME280;63609;49.992;14.512;2024-02-23T05:04:35;96132.03;;;6.49;52.98
75039;BME280;63609;49.992;14.512;2024-02-23T05:07:01;96141.09;;;6.86;52.83
75039;BME280;63609;49.992;14.512;2024-02-23T05:09:28;96147.22;;;6.63;52.86
75039;BME280;63609;49.992;14.512;2024-02-23T05:11:55;96153.38;;;6.08;54.66
75039;BME280;63609;49.992;14.512;2024-02-23T05:14:22;96153.00;;;6.20;53.76
75039;BME280;63609;49.992;14.512;2024-02-23T05:16:49;96161.34;;;6.08;54.04
75039;BME280;63609;49.992;14.512;2024-02-23T05:19:16;96180.56;;;6.02;54.49
75039;BME280;63609;49.992;14.512;2024-02-23T05:21:43;96168.00;;;5.88;54.25
75039;BME280;63609;49.992;14.512;2024-02-23T05:24:11;96180.03;;;6.15;55.05
75039;BME280;63609;49.992;14.512;2024-02-23T05:26:38;96183.69;;;6.06;54.87
75039;BME280;63609;49.992;14.512;2024-02-23T05:29:05;96179.41;;;5.97;55.57
75039;BME280;63609;49.992;14.512;2024-02-23T05:31:46;96201.25;;;6.07;55.08
75039;BME280;63609;49.992;14.512;2024-02-23T05:34:14;96199.63;;;5.82;55.35
75039;BME280;63609;49.992;14.512;2024-02-23T05:36:40;96189.09;;;6.29;54.88
75039;BME280;63609;49.992;14.512;2024-02-23T05:39:07;96192.13;;;6.09;55.58
75039;BME280;63609;49.992;14.512;2024-02-23T05:41:37;96193.25;;;6.31;54.95
75039;BME280;63609;49.992;14.512;2024-02-23T05:44:04;96200.56;;;6.13;55.85
75039;BME280;63609;49.992;14.512;2024-02-23T05:46:33;96206.03;;;6.12;56.15
75039;BME280;63609;49.992;14.512;2024-02-23T05:49:03;96208.69;;;6.03;55.64
75039;BME280;63609;49.992;14.512;2024-02-23T05:51:32;96217.19;;;5.91;56.12
75039;BME280;63609;49.992;14.512;2024-02-23T05:54:00;96226.25;;;6.04;55.47
75039;BME280;63609;49.992;14.512;2024-02-23T05:56:27;96218.66;;;5.85;56.27
75039;BME280;63609;49.992;14.512;2024-02-23T05:58:54;96223.25;;;6.07;56.00
75039;BME280;63609;49.992;14.512;2024-02-23T06:01:21;96227.06;;;6.13;55.75
75039;BME280;63609;49.992;14.512;2024-02-23T06:03:49;96224.47;;;5.72;56.13
75039;BME280;63609;49.992;14.512;2024-02-23T06:06:19;96241.50;;;5.78;56.61
75039;BME280;63609;49.992;14.512;2024-02-23T06:08:46;96235.53;;;5.76;57.27
75039;BME280;63609;49.992;14.512;2024-02-23T06:11:13;96231.69;;;5.30;57.60
75039;BME280;63609;49.992;14.512;2024-02-23T06:13:39;96231.69;;;5.30;57.78
75039;BME280;63609;49.992;14.512;2024-02-23T06:16:10;96243.28;;;5.37;57.97
75039;BME280;63609;49.992;14.512;2024-02-23T06:18:38;96239.34;;;5.73;57.92
75039;BME280;63609;49.992;14.512;2024-02-23T06:21:14;96241.66;;;5.60;57.31
75039;BME280;63609;49.992;14.512;2024-02-23T06:23:41;96235.16;;;5.30;58.17
75039;BME280;63609;49.992;14.512;2024-02-23T06:26:09;96235.50;;;5.52;58.40
75039;BME280;63609;49.992;14.512;2024-02-23T06:28:36;96244.47;;;5.67;58.29
75039;BME280;63609;49.992;14.512;2024-02-23T06:31:05;96253.03;;;5.36;58.22
75039;BME280;63609;49.992;14.512;2024-02-23T06:33:32;96257.34;;;5.54;58.55
75039;BME280;63609;49.992;14.512;2024-02-23T06:36:00;96253.34;;;5.33;58.87
75039;BME280;63609;49.992;14.512;2024-02-23T06:38:27;96261.06;;;5.02;58.93
75039;BME280;63609;49.992;14.512;2024-02-23T06:40:54;96269.94;;;5.60;57.62
75039;BME280;63609;49.992;14.512;2024-02-23T06:43:22;96263.28;;;5.47;57.97
75039;BME280;63609;49.992;14.512;2024-02-23T06:45:49;96271.28;;;5.80;57.83
75039;BME280;63609;49.992;14.512;2024-02-23T06:48:17;96272.38;;;5.53;58.41
75039;BME280;63609;49.992;14.512;2024-02-23T06:50:45;96285.44;;;5.46;58.53
75039;BME280;63609;49.992;14.512;2024-02-23T06:53:12;96293.16;;;5.24;58.54
75039;BME280;63609;49.992;14.512;2024-02-23T06:55:39;96286.66;;;5.60;57.46
75039;BME280;63609;49.992;14.512;2024-02-23T06:58:07;96297.88;;;5.54;58.33
75039;BME280;63609;49.992;14.512;2024-02-23T07:00:34;96295.03;;;5.31;58.16
75039;BME280;63609;49.992;14.512;2024-02-23T07:03:02;96291.25;;;5.50;58.13
75039;BME280;63609;49.992;14.512;2024-02-23T07:05:32;96286.47;;;5.70;57.56
75039;BME280;63609;49.992;14.512;2024-02-23T07:07:59;96309.34;;;5.12;58.66
75039;BME280;63609;49.992;14.512;2024-02-23T07:10:27;96315.22;;;5.48;58.26
75039;BME280;63609;49.992;14.512;2024-02-23T07:12:54;96311.22;;;5.28;58.89
75039;BME280;63609;49.992;14.512;2024-02-23T07:15:23;96313.56;;;5.39;58.59
75039;BME280;63609;49.992;14.512;2024-02-23T07:17:52;96329.13;;;5.51;57.94
75039;BME280;63609;49.992;14.512;2024-02-23T07:20:19;96326.41;;;5.76;57.78
75039;BME280;63609;49.992;14.512;2024-02-23T07:22:46;96326.03;;;5.63;57.53
75039;BME280;63609;49.992;14.512;2024-02-23T07:25:17;96325.22;;;5.87;57.01
75039;BME280;63609;49.992;14.512;2024-02-23T07:27:44;96323.38;;;5.63;57.03
75039;BME280;63609;49.992;14.512;2024-02-23T07:30:12;96328.47;;;5.48;57.22
75039;BME280;63609;49.992;14.512;2024-02-23T07:32:39;96343.81;;;5.29;58.76
75039;BME280;63609;49.992;14.512;2024-02-23T07:35:08;96349.38;;;5.17;58.66
75039;BME280;63609;49.992;14.512;2024-02-23T07:37:36;96352.28;;;4.98;59.09
75039;BME280;63609;49.992;14.512;2024-02-23T07:40:03;96359.84;;;5.27;58.10
75039;BME280;63609;49.992;14.512;2024-02-23T07:42:31;96360.63;;;5.20;58.26
75039;BME280;63609;49.992;14.512;2024-02-23T07:44:58;96353.66;;;5.18;57.66
75039;BME280;63609;49.992;14.512;2024-02-23T07:47:25;96344.41;;;5.23;57.90
75039;BME280;63609;49.992;14.512;2024-02-23T07:49:54;96345.56;;;5.20;58.27
75039;BME280;63609;49.992;14.512;2024-02-23T07:52:21;96341.53;;;5.00;59.18
75039;BME280;63609;49.992;14.512;2024-02-23T07:54:53;96327.22;;;5.18;58.59
75039;BME280;63609;49.992;14.512;2024-02-23T07:57:21;96329.91;;;4.93;58.72
75039;BME280;63609;49.992;14.512;2024-02-23T07:59:48;96338.25;;;5.06;58.99
75039;BME280;63609;49.992;14.512;2024-02-23T08:02:15;96344.84;;;4.68;58.99
75039;BME280;63609;49.992;14.512;2024-02-23T08:04:42;96350.66;;;5.05;58.02
75039;BME280;63609;49.992;14.512;2024-02-23T08:07:09;96359.78;;;4.85;58.15
75039;BME280;63609;49.992;14.512;2024-02-23T08:09:36;96370.00;;;5.06;59.39
75039;BME280;63609;49.992;14.512;2024-02-23T08:12:04;96368.03;;;5.08;58.68
75039;BME280;63609;49.992;14.512;2024-02-23T08:14:31;96374.88;;;5.27;57.47
75039;BME280;63609;49.992;14.512;2024-02-23T08:16:59;96386.66;;;5.32;57.97
75039;BME280;63609;49.992;14.512;2024-02-23T08:19:27;96393.78;;;5.06;57.83
75039;BME280;63609;49.992;14.512;2024-02-23T08:21:53;96403.91;;;4.84;58.32
75039;BME280;63609;49.992;14.512;2024-02-23T08:24:20;96398.41;;;5.04;58.33
75039;BME280;63609;49.992;14.512;2024-02-23T08:26:47;96399.91;;;5.06;57.72
75039;BME280;63609;49.992;14.512;2024-02-23T08:29:14;96398.22;;;5.73;56.25
75039;BME280;63609;49.992;14.512;2024-02-23T08:31:41;96403.19;;;5.34;57.01
75039;BME280;63609;49.992;14.512;2024-02-23T08:34:09;96384.50;;;5.36;57.27
75039;BME280;63609;49.992;14.512;2024-02-23T08:36:36;96387.69;;;5.56;57.14
75039;BME280;63609;49.992;14.512;2024-02-23T08:39:03;96392.72;;;5.67;56.52
75039;BME280;63609;49.992;14.512;2024-02-23T08:41:30;96396.28;;;5.49;57.75
75039;BME280;63609;49.992;14.512;2024-02-23T08:43:57;96403.41;;;5.49;56.93
75039;BME280;63609;49.992;14.512;2024-02-23T08:46:24;96392.47;;;5.44;56.39
75039;BME280;63609;49.992;14.512;2024-02-23T08:48:51;96392.28;;;5.37;56.77
75039;BME280;63609;49.992;14.512;2024-02-23T08:51:18;96386.38;;;5.52;56.08
75039;BME280;63609;49.992;14.512;2024-02-23T08:53:45;96393.38;;;5.69;55.61
75039;BME280;63609;49.992;14.512;2024-02-23T08:56:12;96398.38;;;5.72;56.56
75039;BME280;63609;49.992;14.512;2024-02-23T08:58:39;96399.66;;;5.60;55.60
75039;BME280;63609;49.992;14.512;2024-02-23T09:01:06;96397.44;;;6.22;55.15
75039;BME280;63609;49.992;14.512;2024-02-23T09:03:34;96400.38;;;5.86;54.46
75039;BME280;63609;49.992;14.512;2024-02-23T09:06:01;96408.50;;;5.85;54.73
75039;BME280;63609;49.992;14.512;2024-02-23T09:08:28;96414.94;;;5.90;55.43
75039;BME280;63609;49.992;14.512;2024-02-23T09:10:55;96410.84;;;6.04;54.09
75039;BME280;63609;49.992;14.512;2024-02-23T09:13:22;96416.09;;;5.88;54.12
75039;BME280;63609;49.992;14.512;2024-02-23T09:15:49;96433.69;;;6.05;54.57
75039;BME280;63609;49.992;14.512;2024-02-23T09:18:16;96433.81;;;5.79;55.04
75039;BME280;63609;49.992;14.512;2024-02-23T09:20:47;96429.69;;;5.85;54.22
75039;BME280;63609;49.992;14.512;2024-02-23T09:23:14;96432.38;;;5.93;53.59
75039;BME280;63609;49.992;14.512;2024-02-23T09:25:41;96435.56;;;6.37;54.87
75039;BME280;63609;49.992;14.512;2024-02-23T09:28:10;96431.88;;;5.97;53.48
75039;BME280;63609;49.992;14.512;2024-02-23T09:30:38;96443.28;;;5.56;53.97
75039;BME280;63609;49.992;14.512;2024-02-23T09:33:05;96451.00;;;5.41;53.63
75039;BME280;63609;49.992;14.512;2024-02-23T09:35:32;96439.78;;;5.89;53.51
75039;BME280;63609;49.992;14.512;2024-02-23T09:38:00;96438.44;;;5.85;54.28
75039;BME280;63609;49.992;14.512;2024-02-23T09:40:26;96434.88;;;6.10;53.17
75039;BME280;63609;49.992;14.512;2024-02-23T09:42:57;96431.59;;;6.41;52.65
75039;BME280;63609;49.992;14.512;2024-02-23T09:45:28;96426.28;;;6.73;50.96
75039;BME280;63609;49.992;14.512;2024-02-23T09:47:57;96416.41;;;7.15;49.53
75039;BME280;63609;49.992;14.512;2024-02-23T09:50:28;96423.81;;;7.44;50.96
75039;BME280;63609;49.992;14.512;2024-02-23T09:52:58;96418.06;;;7.16;49.76
75039;BME280;63609;49.992;14.512;2024-02-23T09:55:25;96414.06;;;7.20;49.03
75039;BME280;63609;49.992;14.512;2024-02-23T09:57:55;96411.59;;;7.10;49.15
75039;BME280;63609;49.992;14.512;2024-02-23T10:00:24;96405.50;;;7.01;50.87
75039;BME280;63609;49.992;14.512;2024-02-23T10:02:53;96409.97;;;7.01;49.11
75039;BME280;63609;49.992;14.512;2024-02-23T10:05:32;96414.75;;;7.14;50.08
75039;BME280;63609;49.992;14.512;2024-02-23T10:08:04;96410.06;;;6.60;50.32
75039;BME280;63609;49.992;14.512;2024-02-23T10:10:35;96404.91;;;6.51;51.44
75039;BME280;63609;49.992;14.512;2024-02-23T10:13:05;96393.97;;;6.37;50.41
75039;BME280;63609;49.992;14.512;2024-02-23T10:15:32;96402.25;;;6.34;50.88
75039;BME280;63609;49.992;14.512;2024-02-23T10:17:59;96405.41;;;6.62;50.43
75039;BME280;63609;49.992;14.512;2024-02-23T10:20:26;96414.31;;;6.78;50.85
75039;BME280;63609;49.992;14.512;2024-02-23T10:22:53;96420.44;;;6.94;50.75
75039;BME280;63609;49.992;14.512;2024-02-23T10:25:21;96436.84;;;6.17;50.50
75039;BME280;63609;49.992;14.512;2024-02-23T10:27:48;96442.03;;;6.43;51.95
75039;BME280;63609;49.992;14.512;2024-02-23T10:30:15;96435.38;;;6.79;50.15
75039;BME280;63609;49.992;14.512;2024-02-23T10:32:42;96432.09;;;6.69;50.38
75039;BME280;63609;49.992;14.512;2024-02-23T10:35:14;96438.22;;;6.45;52.24
75039;BME280;63609;49.992;14.512;2024-02-23T10:37:43;96434.88;;;6.19;51.51
75039;BME280;63609;49.992;14.512;2024-02-23T10:40:16;96456.56;;;6.14;53.18
75039;BME280;63609;49.992;14.512;2024-02-23T10:42:47;96465.00;;;6.09;52.49
75039;BME280;63609;49.992;14.512;2024-02-23T10:45:21;96470.28;;;5.93;53.30
75039;BME280;63609;49.992;14.512;2024-02-23T10:47:49;96471.13;;;6.18;53.44
75039;BME280;63609;49.992;14.512;2024-02-23T10:50:17;96475.28;;;6.21;52.95
75039;BME280;63609;49.992;14.512;2024-02-23T10:52:46;96480.06;;;6.01;53.17
75039;BME280;63609;49.992;14.512;2024-02-23T10:55:14;96478.13;;;6.27;51.95
75039;BME280;63609;49.992;14.512;2024-02-23T10:57:41;96490.88;;;6.32;52.82
75039;BME280;63609;49.992;14.512;2024-02-23T11:00:09;96491.88;;;6.31;51.71
75039;BME280;63609;49.992;14.512;2024-02-23T11:02:43;96490.06;;;6.23;52.41
75039;BME280;63609;49.992;14.512;2024-02-23T11:05:13;96491.53;;;6.26;51.76
75039;BME280;63609;49.992;14.512;2024-02-23T11:07:42;96494.78;;;5.95;52.59
75039;BME280;63609;49.992;14.512;2024-02-23T11:10:13;96487.16;;;6.00;52.19
75039;BME280;63609;49.992;14.512;2024-02-23T11:12:40;96492.31;;;5.68;53.31
75039;BME280;63609;49.992;14.512;2024-02-23T11:15:08;96501.25;;;6.09;52.78
75039;BME280;63609;49.992;14.512;2024-02-23T11:17:37;96506.31;;;5.86;53.65
75039;BME280;63609;49.992;14.512;2024-02-23T11:20:05;96505.56;;;5.68;53.15
75039;BME280;63609;49.992;14.512;2024-02-23T11:22:34;96515.47;;;5.92;52.29
75039;BME280;63609;49.992;14.512;2024-02-23T11:25:07;96525.09;;;5.67;53.53
75039;BME280;63609;49.992;14.512;2024-02-23T11:27:38;96517.91;;;5.85;53.05
75039;BME280;63609;49.992;14.512;2024-02-23T11:30:12;96510.78;;;5.86;53.22
75039;BME280;63609;49.992;14.512;2024-02-23T11:32:45;96508.50;;;5.91;53.39
75039;BME280;63609;49.992;14.512;2024-02-23T11:35:15;96510.16;;;5.92;52.77
75039;BME280;63609;49.992;14.512;2024-02-23T11:37:56;96511.44;;;5.88;53.28
75039;BME280;63609;49.992;14.512;2024-02-23T11:40:32;96509.78;;;6.37;53.22
75039;BME280;63609;49.992;14.512;2024-02-23T11:42:59;96507.78;;;6.39;52.48
75039;BME280;63609;49.992;14.512;2024-02-23T11:45:30;96503.81;;;6.51;52.64
75039;BME280;63609;49.992;14.512;2024-02-23T11:47:58;96498.19;;;6.46;51.29
75039;BME280;63609;49.992;14.512;2024-02-23T11:50:26;96492.47;;;6.08;52.40
75039;BME280;63609;49.992;14.512;2024-02-23T11:52:53;96485.25;;;6.51;52.23
75039;BME280;63609;49.992;14.512;2024-02-23T11:55:24;96475.31;;;6.86;50.96
75039;BME280;63609;49.992;14.512;2024-02-23T11:57:51;96485.78;;;6.71;51.17
75039;BME280;63609;49.992;14.512;2024-02-23T12:00:31;96481.47;;;6.94;50.01
75039;BME280;63609;49.992;14.512;2024-02-23T12:02:59;96482.47;;;6.69;49.66
75039;BME280;63609;49.992;14.512;2024-02-23T12:05:26;96477.13;;;7.10;50.31
75039;BME280;63609;49.992;14.512;2024-02-23T12:07:54;96479.47;;;6.72;51.09
75039;BME280;63609;49.992;14.512;2024-02-23T12:10:22;96486.41;;;6.49;51.15
75039;BME280;63609;49.992;14.512;2024-02-23T12:12:49;96486.78;;;6.62;51.08
75039;BME280;63609;49.992;14.512;2024-02-23T12:15:16;96477.13;;;6.85;50.06
75039;BME280;63609;49.992;14.512;2024-02-23T12:17:47;96471.81;;;7.10;49.03
75039;BME280;63609;49.992;14.512;2024-02-23T12:20:14;96471.31;;;7.30;49.67
75039;BME280;63609;49.992;14.512;2024-02-23T12:22:42;96464.63;;;7.43;49.36
75039;BME280;63609;49.992;14.512;2024-02-23T12:25:13;96463.84;;;7.34;49.25
75039;BME280;63609;49.992;14.512;2024-02-23T12:27:43;96471.94;;;7.41;49.47
75039;BME280;63609;49.992;14.512;2024-02-23T12:30:16;96471.56;;;7.52;49.20
75039;BME280;63609;49.992;14.512;2024-02-23T12:32:44;96465.13;;;7.85;49.03
75039;BME280;63609;49.992;14.512;2024-02-23T12:35:14;96472.00;;;7.72;47.56
75039;BME280;63609;49.992;14.512;2024-02-23T12:37:42;96479.28;;;7.78;47.92
75039;BME280;63609;49.992;14.512;2024-02-23T12:40:11;96481.31;;;8.07;47.14
75039;BME280;63609;49.992;14.512;2024-02-23T12:42:38;96478.91;;;8.20;46.35
75039;BME280;63609;49.992;14.512;2024-02-23T12:45:06;96481.03;;;8.24;47.31
75039;BME280;63609;49.992;14.512;2024-02-23T12:47:33;96483.94;;;8.38;47.75
75039;BME280;63609;49.992;14.512;2024-02-23T12:50:00;96482.59;;;8.11;48.19
75039;BME280;63609;49.992;14.512;2024-02-23T12:52:27;96489.47;;;7.66;48.13
75039;BME280;63609;49.992;14.512;2024-02-23T12:54:56;96488.00;;;7.94;47.46
75039;BME280;63609;49.992;14.512;2024-02-23T12:57:23;96490.38;;;7.89;47.84
75039;BME280;63609;49.992;14.512;2024-02-23T12:59:50;96490.41;;;7.73;47.43
75039;BME280;63609;49.992;14.512;2024-02-23T13:02:16;96488.19;;;7.85;48.68
75039;BME280;63609;49.992;14.512;2024-02-23T13:04:44;96483.78;;;8.08;47.33
75039;BME280;63609;49.992;14.512;2024-02-23T13:07:18;96483.78;;;8.62;46.55